Aeroporto :
LOGIN :

Iscrizione | Disclaimer

   EN    FR    IT 

 










Sommario :    VFR   VFR Marginale   IFR   IFR Intensivo   IFR Molto Intensivo
Visibilità : 
Base nubi : 
>= 8 km
>= 3000ft
5 / 8 km
1000 / 3000 ft
1500m / 5 km
500 / 1000 ft
800 / 1500m
200 / 500 ft
< 800m
< 200 ft
Simboli :   Temporali  Nebbia  Neve Forte  Precipitazioni Forti  Vento > 20 kt
SIGMETs :   Varie  Temporali  Ghiacco  Turbolenza  Onda orograficha  Ceneri Vulcaniche






- Altitudine del aeroporto : 408 ft
- Codice IATA : FKB


EDSB - Karlsruhe Baden Baden

ULTIMO METAR :
  • 172120Z 21007KT 9999 SCT027 BKN037 07/06 Q1022

METARs OBSOLETI :
  • 172050Z 19009KT 9999 BKN027 OVC034 08/07 Q1022
  • 172020Z 19008KT 9999 -RA SCT028 BKN034 08/07 Q1022
  • 171950Z 20008KT 9999 -RA SCT028 07/07 Q1022
  • 171920Z 20008KT 9999 -RA FEW021 OVC048 08/07 Q1021
  • 171850Z 20008KT 9999 SCT028 BKN040 08/07 Q1021
  • 171820Z 21008KT 9999 SCT028 BKN041 OVC048 08/07 Q1021

TAF TAF EDSB
Valido dal 17 a 18 ore il 18 a 18 ore UTC


171700Z 1718/1818 21008KT 9999 SCT020 BKN030
TEMPO 1718/1724 4500 -RADZ BKN014
PROB30
TEMPO 1812/1818 SHRA SCT030TCU



MetMap, La meteo Aeronautica in un colpo d'occhio ! - Copyright ORBIFLY Dicembre 2007 - Disclaimer

ORBIFLY MET'MAP TEAM :

Programmazione e sviluppo : Alexandra Zaïnal
Concezione : Baudouin d'Aumeries
Aiuto per la programmazione : Marc-Olivier Méhu
Supporto tecnico e logistico : Manuel Goepfert
Aiuto per la traduzione : Arnaldo La Scala

Contatto : metmap@orbifly.com




FONTI E CREDITI :

   NOAA